Time;durP1;ratioP1;P1;durP2;ratioP2;P2;SDS_P1;SDS_P2;PMS_P1;PMS_P2;Temp;Humidity;BMP_temperature;BMP_pressure;BME280_temperature;BME280_humidity;BME280_pressure;Samples;Min_cycle;Max_cycle;Signal;HPM_P1;HPM_P2
2024/02/10 00:01:10;;;;;;;63.50;34.10;;;;;;;-128.00;-1.00;-1.00;105639;1252;1004657;-76
2024/02/10 00:03:46;;;;;;;71.60;39.00;;;;;;;-128.00;-1.00;-1.00;105638;1253;1058007;-80
2024/02/10 00:06:15;;;;;;;73.90;40.10;;;;;;;-128.00;-1.00;-1.00;105668;1252;1059854;-75
2024/02/10 00:08:43;;;;;;;77.80;40.20;;;;;;;-128.00;-1.00;-1.00;105206;1253;1045006;-75
2024/02/10 00:11:13;;;;;;;79.40;45.10;;;;;;;-128.00;-1.00;-1.00;105657;1253;1003313;-75
2024/02/10 00:13:41;;;;;;;82.10;47.70;;;;;;;-128.00;-1.00;-1.00;105620;1253;1061338;-75
2024/02/10 00:16:08;;;;;;;89.50;47.10;;;;;;;-128.00;-1.00;-1.00;105672;1252;1004153;-75
2024/02/10 00:18:37;;;;;;;77.50;44.10;;;;;;;-128.00;-1.00;-1.00;105663;1252;1003496;-75
2024/02/10 00:21:04;;;;;;;82.90;50.20;;;;;;;-128.00;-1.00;-1.00;104544;1253;1045962;-75
2024/02/10 00:23:31;;;;;;;84.50;49.70;;;;;;;-128.00;-1.00;-1.00;105669;1253;1004755;-79
2024/02/10 00:25:57;;;;;;;101.40;57.40;;;;;;;-128.00;-1.00;-1.00;105662;1253;1003619;-75
2024/02/10 00:28:26;;;;;;;93.40;53.60;;;;;;;-128.00;-1.00;-1.00;105665;1253;1004042;-75
2024/02/10 00:30:58;;;;;;;101.70;57.10;;;;;;;-128.00;-1.00;-1.00;105648;1253;1059100;-76
2024/02/10 00:33:25;;;;;;;103.50;60.20;;;;;;;-128.00;-1.00;-1.00;105664;1253;1045916;-75
2024/02/10 00:35:52;;;;;;;92.90;53.50;;;;;;;-128.00;-1.00;-1.00;105704;1253;1003638;-80
2024/02/10 00:38:20;;;;;;;83.30;47.80;;;;;;;-128.00;-1.00;-1.00;105712;1253;1004198;-79
2024/02/10 00:40:48;;;;;;;88.40;53.40;;;;;;;-128.00;-1.00;-1.00;105619;1253;1057944;-79
2024/02/10 00:43:15;;;;;;;86.40;53.40;;;;;;;-128.00;-1.00;-1.00;105603;1253;1004392;-75
2024/02/10 00:45:43;;;;;;;93.40;54.70;;;;;;;-128.00;-1.00;-1.00;105297;1253;1005206;-75
2024/02/10 00:48:10;;;;;;;160.70;78.10;;;;;;;-128.00;-1.00;-1.00;103242;1254;1049383;-75
2024/02/10 00:50:36;;;;;;;147.60;84.00;;;;;;;-128.00;-1.00;-1.00;103126;1253;1004535;-79
2024/02/10 00:53:03;;;;;;;116.90;65.40;;;;;;;-128.00;-1.00;-1.00;103265;1253;1005354;-79
2024/02/10 00:55:30;;;;;;;112.60;62.40;;;;;;;-128.00;-1.00;-1.00;103082;1258;1004177;-79
2024/02/10 00:58:06;;;;;;;121.30;70.80;;;;;;;-128.00;-1.00;-1.00;103289;1257;1004114;-79
2024/02/10 01:00:34;;;;;;;121.50;68.50;;;;;;;-128.00;-1.00;-1.00;103271;1253;1047346;-81
2024/02/10 01:03:00;;;;;;;121.30;67.10;;;;;;;-128.00;-1.00;-1.00;103212;1253;1003948;-79
2024/02/10 01:05:27;;;;;;;127.00;76.00;;;;;;;-128.00;-1.00;-1.00;103234;1253;1005013;-79
2024/02/10 01:07:54;;;;;;;142.60;77.30;;;;;;;-128.00;-1.00;-1.00;103224;1253;1004948;-79
2024/02/10 01:10:20;;;;;;;133.60;76.80;;;;;;;-128.00;-1.00;-1.00;103251;1253;1004447;-79
2024/02/10 01:12:47;;;;;;;128.10;81.10;;;;;;;-128.00;-1.00;-1.00;103268;1253;1004236;-75
2024/02/10 01:15:13;;;;;;;144.10;81.70;;;;;;;-128.00;-1.00;-1.00;103286;1253;1003930;-75
2024/02/10 01:17:42;;;;;;;149.70;81.40;;;;;;;-128.00;-1.00;-1.00;103251;1253;1003652;-79
2024/02/10 01:20:12;;;;;;;147.90;84.40;;;;;;;-128.00;-1.00;-1.00;103279;1253;1059445;-75
2024/02/10 01:22:41;;;;;;;136.50;78.70;;;;;;;-128.00;-1.00;-1.00;103219;1252;1047091;-79
2024/02/10 01:25:08;;;;;;;133.30;79.00;;;;;;;-128.00;-1.00;-1.00;103258;1253;1048183;-75
2024/02/10 01:27:34;;;;;;;144.20;85.20;;;;;;;-128.00;-1.00;-1.00;103229;1252;1004338;-79
2024/02/10 01:30:03;;;;;;;147.60;90.20;;;;;;;-128.00;-1.00;-1.00;103294;1253;1004098;-79
2024/02/10 01:32:30;;;;;;;146.40;85.00;;;;;;;-128.00;-1.00;-1.00;103254;1253;1058810;-79
2024/02/10 01:34:57;;;;;;;130.40;79.00;;;;;;;-128.00;-1.00;-1.00;103241;1253;1003925;-79
2024/02/10 01:37:23;;;;;;;128.30;79.20;;;;;;;-128.00;-1.00;-1.00;103230;1253;1004325;-79
2024/02/10 01:39:53;;;;;;;117.10;76.40;;;;;;;-128.00;-1.00;-1.00;103252;1252;1004475;-76
2024/02/10 01:42:39;;;;;;;108.60;69.70;;;;;;;-128.00;-1.00;-1.00;103300;1253;1060551;-79
2024/02/10 01:45:11;;;;;;;109.50;66.00;;;;;;;-128.00;-1.00;-1.00;103230;1255;1061868;-75
2024/02/10 01:47:38;;;;;;;114.30;67.30;;;;;;;-128.00;-1.00;-1.00;105615;1253;1044959;-75
2024/02/10 01:50:05;;;;;;;126.00;75.90;;;;;;;-128.00;-1.00;-1.00;105652;1252;1004205;-75
2024/02/10 01:52:33;;;;;;;133.00;80.60;;;;;;;-128.00;-1.00;-1.00;105660;1255;1003880;-75
2024/02/10 01:55:00;;;;;;;132.00;77.30;;;;;;;-128.00;-1.00;-1.00;105695;1251;1059163;-75
2024/02/10 01:57:27;;;;;;;115.80;72.20;;;;;;;-128.00;-1.00;-1.00;105716;1251;1004721;-79
2024/02/10 01:59:54;;;;;;;111.30;70.00;;;;;;;-128.00;-1.00;-1.00;105705;1251;1004077;-79
2024/02/10 02:02:20;;;;;;;109.70;62.60;;;;;;;-128.00;-1.00;-1.00;105661;1252;1004310;-79
2024/02/10 02:04:47;;;;;;;108.40;65.20;;;;;;;-128.00;-1.00;-1.00;105653;1252;1004178;-79
2024/02/10 02:07:13;;;;;;;99.60;62.70;;;;;;;-128.00;-1.00;-1.00;105651;1252;1004308;-79
2024/02/10 02:09:40;;;;;;;103.10;63.90;;;;;;;-128.00;-1.00;-1.00;105652;1253;1004457;-75
2024/02/10 02:12:07;;;;;;;96.90;60.80;;;;;;;-128.00;-1.00;-1.00;105637;1253;1004607;-76
2024/02/10 02:14:37;;;;;;;111.20;64.90;;;;;;;-128.00;-1.00;-1.00;105638;1253;1003843;-76
2024/02/10 02:17:04;;;;;;;117.10;72.70;;;;;;;-128.00;-1.00;-1.00;105660;1253;1060267;-80
2024/02/10 02:19:34;;;;;;;104.30;66.70;;;;;;;-128.00;-1.00;-1.00;105604;1253;1004155;-79
2024/02/10 02:22:03;;;;;;;118.70;71.40;;;;;;;-128.00;-1.00;-1.00;104034;1253;1059285;-79
2024/02/10 02:24:29;;;;;;;121.80;73.50;;;;;;;-128.00;-1.00;-1.00;103317;1253;1046293;-76
2024/02/10 02:26:59;;;;;;;121.30;72.50;;;;;;;-128.00;-1.00;-1.00;103293;1253;1005218;-79
2024/02/10 02:29:26;;;;;;;116.60;71.50;;;;;;;-128.00;-1.00;-1.00;103286;1254;1061168;-79
2024/02/10 02:32:00;;;;;;;131.20;78.50;;;;;;;-128.00;-1.00;-1.00;103265;1253;1004660;-79
2024/02/10 02:34:27;;;;;;;124.80;77.70;;;;;;;-128.00;-1.00;-1.00;103322;1255;1059752;-79
2024/02/10 02:36:53;;;;;;;146.20;89.80;;;;;;;-128.00;-1.00;-1.00;103298;1256;1004374;-78
2024/02/10 02:39:20;;;;;;;143.40;83.90;;;;;;;-128.00;-1.00;-1.00;103301;1254;1004497;-79
2024/02/10 02:41:47;;;;;;;132.30;79.40;;;;;;;-128.00;-1.00;-1.00;103302;1253;1006642;-79
2024/02/10 02:44:17;;;;;;;141.50;84.20;;;;;;;-128.00;-1.00;-1.00;103219;1253;1004331;-79
2024/02/10 02:46:43;;;;;;;144.80;89.30;;;;;;;-128.00;-1.00;-1.00;103237;1253;1059454;-75
2024/02/10 02:49:12;;;;;;;142.10;90.60;;;;;;;-128.00;-1.00;-1.00;103239;1253;1005594;-79
2024/02/10 02:51:38;;;;;;;162.30;96.90;;;;;;;-128.00;-1.00;-1.00;103256;1253;1047487;-75
2024/02/10 02:54:05;;;;;;;141.30;91.30;;;;;;;-128.00;-1.00;-1.00;103291;1253;1004494;-75
2024/02/10 02:56:31;;;;;;;152.20;93.40;;;;;;;-128.00;-1.00;-1.00;103176;1253;1004189;-79
2024/02/10 02:58:57;;;;;;;149.00;95.20;;;;;;;-128.00;-1.00;-1.00;103237;1253;1004787;-79
2024/02/10 03:01:24;;;;;;;148.90;90.30;;;;;;;-128.00;-1.00;-1.00;103384;1253;1004956;-81
2024/02/10 03:03:50;;;;;;;146.40;93.30;;;;;;;-128.00;-1.00;-1.00;103197;1255;1004418;-79
2024/02/10 03:06:18;;;;;;;149.10;93.30;;;;;;;-128.00;-1.00;-1.00;103267;1256;1003938;-75
2024/02/10 03:08:47;;;;;;;144.60;90.60;;;;;;;-128.00;-1.00;-1.00;103268;1253;1004407;-76
2024/02/10 03:11:17;;;;;;;144.30;89.40;;;;;;;-128.00;-1.00;-1.00;103306;1256;1060207;-79
2024/02/10 03:13:48;;;;;;;150.90;88.10;;;;;;;-128.00;-1.00;-1.00;103256;1253;1045535;-75
2024/02/10 03:16:17;;;;;;;158.20;92.10;;;;;;;-128.00;-1.00;-1.00;103292;1252;1047811;-78
2024/02/10 03:18:46;;;;;;;156.20;94.40;;;;;;;-128.00;-1.00;-1.00;103324;1256;1060948;-79
2024/02/10 03:21:14;;;;;;;147.00;92.80;;;;;;;-128.00;-1.00;-1.00;103168;1253;1057883;-79
2024/02/10 03:23:40;;;;;;;145.40;92.20;;;;;;;-128.00;-1.00;-1.00;103195;1253;1004136;-75
2024/02/10 03:26:07;;;;;;;138.10;85.40;;;;;;;-128.00;-1.00;-1.00;103191;1253;1004224;-75
2024/02/10 03:28:33;;;;;;;139.30;83.00;;;;;;;-128.00;-1.00;-1.00;103182;1253;1004289;-79
2024/02/10 03:31:04;;;;;;;153.50;90.50;;;;;;;-128.00;-1.00;-1.00;103231;1253;1004070;-78
2024/02/10 03:33:32;;;;;;;153.10;96.80;;;;;;;-128.00;-1.00;-1.00;103229;1254;1060328;-75
2024/02/10 03:35:59;;;;;;;167.60;104.10;;;;;;;-128.00;-1.00;-1.00;103273;1253;1059361;-76
2024/02/10 03:38:27;;;;;;;157.70;100.80;;;;;;;-128.00;-1.00;-1.00;105665;1253;1004897;-75
2024/02/10 03:40:53;;;;;;;165.30;102.90;;;;;;;-128.00;-1.00;-1.00;105636;1253;1004743;-75
2024/02/10 03:43:25;;;;;;;144.70;94.20;;;;;;;-128.00;-1.00;-1.00;105644;1253;1004956;-75
2024/02/10 03:45:52;;;;;;;166.00;98.70;;;;;;;-128.00;-1.00;-1.00;105626;1253;1057879;-79
2024/02/10 03:48:19;;;;;;;153.60;92.20;;;;;;;-128.00;-1.00;-1.00;105598;1253;1004344;-79
2024/02/10 03:50:45;;;;;;;161.70;99.20;;;;;;;-128.00;-1.00;-1.00;103888;1253;1003909;-79
2024/02/10 03:53:12;;;;;;;162.80;98.00;;;;;;;-128.00;-1.00;-1.00;103188;1253;1006146;-79
2024/02/10 03:55:38;;;;;;;151.60;95.50;;;;;;;-128.00;-1.00;-1.00;103205;1257;1004269;-79
2024/02/10 03:58:05;;;;;;;137.90;86.40;;;;;;;-128.00;-1.00;-1.00;103191;1253;1004340;-79
2024/02/10 04:00:36;;;;;;;131.20;76.90;;;;;;;-128.00;-1.00;-1.00;103158;1253;1003748;-75
2024/02/10 04:03:03;;;;;;;113.90;70.60;;;;;;;-128.00;-1.00;-1.00;103151;1253;1047693;-79
2024/02/10 04:05:38;;;;;;;113.80;69.50;;;;;;;-128.00;-1.00;-1.00;103173;1253;1004052;-79
2024/02/10 04:08:06;;;;;;;123.50;74.70;;;;;;;-128.00;-1.00;-1.00;103239;1253;1060954;-75
2024/02/10 04:10:33;;;;;;;124.60;73.60;;;;;;;-128.00;-1.00;-1.00;105646;1253;1004801;-78
2024/02/10 04:13:02;;;;;;;124.90;74.80;;;;;;;-128.00;-1.00;-1.00;105664;1253;1003954;-79
2024/02/10 04:15:29;;;;;;;118.60;72.20;;;;;;;-128.00;-1.00;-1.00;105613;1256;1045187;-80
2024/02/10 04:17:55;;;;;;;111.90;66.40;;;;;;;-128.00;-1.00;-1.00;105652;1253;1003963;-79
2024/02/10 04:20:25;;;;;;;120.40;73.70;;;;;;;-128.00;-1.00;-1.00;103391;1256;1004128;-75
2024/02/10 04:22:52;;;;;;;124.70;71.60;;;;;;;-128.00;-1.00;-1.00;105284;1254;1059155;-79
2024/02/10 04:25:18;;;;;;;128.30;72.00;;;;;;;-128.00;-1.00;-1.00;104113;1256;1004071;-75
2024/02/10 04:27:45;;;;;;;139.30;81.80;;;;;;;-128.00;-1.00;-1.00;103312;1253;1005111;-75
2024/02/10 04:30:11;;;;;;;134.90;72.40;;;;;;;-128.00;-1.00;-1.00;103290;1252;1004361;-75
2024/02/10 04:32:47;;;;;;;124.60;71.90;;;;;;;-128.00;-1.00;-1.00;103268;1256;1004653;-76
2024/02/10 04:35:14;;;;;;;114.00;66.20;;;;;;;-128.00;-1.00;-1.00;103250;1253;1057931;-79
2024/02/10 04:37:51;;;;;;;104.40;61.50;;;;;;;-128.00;-1.00;-1.00;103244;1253;1004801;-75
2024/02/10 04:40:17;;;;;;;91.30;56.50;;;;;;;-128.00;-1.00;-1.00;103200;1253;1046714;-75
2024/02/10 04:42:44;;;;;;;77.70;48.10;;;;;;;-128.00;-1.00;-1.00;103258;1256;1005035;-75
2024/02/10 04:45:25;;;;;;;83.10;50.10;;;;;;;-128.00;-1.00;-1.00;103221;1256;1005220;-75
2024/02/10 04:47:51;;;;;;;115.10;65.00;;;;;;;-128.00;-1.00;-1.00;103260;1254;1060709;-75
2024/02/10 04:50:21;;;;;;;119.70;68.40;;;;;;;-128.00;-1.00;-1.00;103230;1257;1005130;-75
2024/02/10 04:52:47;;;;;;;105.60;62.10;;;;;;;-128.00;-1.00;-1.00;103308;1254;1048227;-75
2024/02/10 04:55:15;;;;;;;116.20;68.60;;;;;;;-128.00;-1.00;-1.00;103290;1256;1005159;-79
2024/02/10 04:57:42;;;;;;;100.50;62.90;;;;;;;-128.00;-1.00;-1.00;103301;1256;1004856;-75
2024/02/10 05:00:14;;;;;;;100.20;56.70;;;;;;;-128.00;-1.00;-1.00;103213;1256;1004210;-80
2024/02/10 05:02:52;;;;;;;93.80;57.50;;;;;;;-128.00;-1.00;-1.00;103446;1253;1061093;-75
2024/02/10 05:05:20;;;;;;;;;;;;;;;-128.00;-1.00;-1.00;103291;1253;1046806;-79
2024/02/10 05:07:47;;;;;;;84.90;51.20;;;;;;;-128.00;-1.00;-1.00;103258;1255;1005042;-79
2024/02/10 05:10:15;;;;;;;74.80;45.70;;;;;;;-128.00;-1.00;-1.00;103200;1253;1005217;-75
2024/02/10 05:12:44;;;;;;;74.80;43.40;;;;;;;-128.00;-1.00;-1.00;103150;1253;1004689;-75
2024/02/10 05:15:14;;;;;;;72.20;43.20;;;;;;;-128.00;-1.00;-1.00;103163;1254;1060143;-79
2024/02/10 05:17:41;;;;;;;75.60;45.60;;;;;;;-128.00;-1.00;-1.00;103146;1253;1045140;-75
2024/02/10 05:20:13;;;;;;;77.90;48.00;;;;;;;-128.00;-1.00;-1.00;103543;1256;1003997;-75
2024/02/10 05:22:42;;;;;;;72.70;43.90;;;;;;;-128.00;-1.00;-1.00;104399;1256;1061375;-75
2024/02/10 05:25:10;;;;;;;67.60;40.90;;;;;;;-128.00;-1.00;-1.00;103180;1253;1058357;-75
2024/02/10 05:27:38;;;;;;;80.70;44.50;;;;;;;-128.00;-1.00;-1.00;103214;1253;1005565;-79
2024/02/10 05:30:11;;;;;;;78.10;44.30;;;;;;;-128.00;-1.00;-1.00;105709;1256;1004762;-76
2024/02/10 05:32:38;;;;;;;83.60;50.20;;;;;;;-128.00;-1.00;-1.00;104753;1255;1047364;-75
2024/02/10 05:35:07;;;;;;;81.00;49.00;;;;;;;-128.00;-1.00;-1.00;103519;1256;1005441;-79
2024/02/10 05:37:38;;;;;;;;;;;;;;;-128.00;-1.00;-1.00;103508;1253;1057750;-75
2024/02/10 05:40:08;;;;;;;64.90;39.30;;;;;;;-128.00;-1.00;-1.00;103350;1253;1059404;-75
2024/02/10 05:42:37;;;;;;;68.10;40.50;;;;;;;-128.00;-1.00;-1.00;103309;1257;1045771;-79
2024/02/10 05:45:06;;;;;;;71.70;46.50;;;;;;;-128.00;-1.00;-1.00;103154;1256;1050626;-79
2024/02/10 05:47:34;;;;;;;69.50;42.50;;;;;;;-128.00;-1.00;-1.00;105642;1254;1062229;-79
2024/02/10 05:50:15;;;;;;;71.20;43.50;;;;;;;-128.00;-1.00;-1.00;105667;1253;1004249;-75
2024/02/10 05:52:42;;;;;;;63.40;39.90;;;;;;;-128.00;-1.00;-1.00;105660;1254;1057895;-75
2024/02/10 05:55:11;;;;;;;73.60;45.00;;;;;;;-128.00;-1.00;-1.00;105659;1252;1005162;-79
2024/02/10 05:57:38;;;;;;;76.00;43.10;;;;;;;-128.00;-1.00;-1.00;105626;1253;1046981;-79
2024/02/10 06:00:09;;;;;;;79.10;46.30;;;;;;;-128.00;-1.00;-1.00;105677;1254;1005188;-79
2024/02/10 06:02:41;;;;;;;81.50;50.60;;;;;;;-128.00;-1.00;-1.00;105660;1256;1058711;-76
2024/02/10 06:05:14;;;;;;;63.60;37.20;;;;;;;-128.00;-1.00;-1.00;105655;1252;1059124;-75
2024/02/10 06:07:41;;;;;;;64.50;34.40;;;;;;;-128.00;-1.00;-1.00;104199;1256;1046135;-79
2024/02/10 06:10:15;;;;;;;69.50;40.00;;;;;;;-128.00;-1.00;-1.00;105677;1253;1004056;-75
2024/02/10 06:12:45;;;;;;;84.10;43.50;;;;;;;-128.00;-1.00;-1.00;105625;1253;1062954;-79
2024/02/10 06:15:12;;;;;;;88.70;41.90;;;;;;;-128.00;-1.00;-1.00;105611;1253;1057690;-75
2024/02/10 06:17:39;;;;;;;81.20;41.10;;;;;;;-128.00;-1.00;-1.00;105527;1254;1004950;-75
2024/02/10 06:20:12;;;;;;;69.90;40.20;;;;;;;-128.00;-1.00;-1.00;105610;1255;1003977;-79
2024/02/10 06:22:39;;;;;;;69.50;39.80;;;;;;;-128.00;-1.00;-1.00;105626;1253;1047635;-75
2024/02/10 06:25:06;;;;;;;60.30;37.90;;;;;;;-128.00;-1.00;-1.00;105654;1252;1004345;-79
2024/02/10 06:27:34;;;;;;;70.10;38.60;;;;;;;-128.00;-1.00;-1.00;105654;1253;1003873;-75
2024/02/10 06:30:01;;;;;;;72.20;38.80;;;;;;;-128.00;-1.00;-1.00;105653;1253;1004653;-75
2024/02/10 06:32:27;;;;;;;70.50;41.30;;;;;;;-128.00;-1.00;-1.00;105552;1252;1005045;-76
2024/02/10 06:34:55;;;;;;;64.10;39.60;;;;;;;-128.00;-1.00;-1.00;105647;1253;1004353;-75
2024/02/10 06:37:21;;;;;;;66.00;37.30;;;;;;;-128.00;-1.00;-1.00;105693;1253;1004123;-75
2024/02/10 06:39:48;;;;;;;63.50;38.00;;;;;;;-128.00;-1.00;-1.00;105646;1254;1004159;-75
2024/02/10 06:42:14;;;;;;;66.40;38.50;;;;;;;-128.00;-1.00;-1.00;105645;1253;1004447;-75
2024/02/10 06:44:42;;;;;;;76.30;42.20;;;;;;;-128.00;-1.00;-1.00;103693;1254;1005058;-80
2024/02/10 06:47:09;;;;;;;68.90;42.70;;;;;;;-128.00;-1.00;-1.00;103238;1254;1004883;-75
2024/02/10 06:49:36;;;;;;;69.50;40.90;;;;;;;-128.00;-1.00;-1.00;103298;1257;1004100;-80
2024/02/10 06:52:03;;;;;;;78.30;44.90;;;;;;;-128.00;-1.00;-1.00;105676;1254;1004398;-75
2024/02/10 06:54:30;;;;;;;70.60;45.00;;;;;;;-128.00;-1.00;-1.00;105626;1254;1004235;-75
2024/02/10 06:56:58;;;;;;;71.20;44.00;;;;;;;-128.00;-1.00;-1.00;105656;1254;1004515;-80
2024/02/10 06:59:25;;;;;;;66.50;42.10;;;;;;;-128.00;-1.00;-1.00;105651;1252;1004200;-75
2024/02/10 07:01:54;;;;;;;88.90;55.30;;;;;;;-128.00;-1.00;-1.00;105494;1254;1003600;-80
2024/02/10 07:04:23;;;;;;;;;;;;;;;-128.00;-1.00;-1.00;103408;1254;1058036;-81
2024/02/10 07:06:57;;;;;;;113.40;62.50;;;;;;;-128.00;-1.00;-1.00;103295;1254;1058923;-80
2024/02/10 07:09:24;;;;;;;92.20;53.40;;;;;;;-128.00;-1.00;-1.00;103245;1254;1046248;-80
2024/02/10 07:11:50;;;;;;;75.20;43.80;;;;;;;-128.00;-1.00;-1.00;103226;1254;1004071;-75
2024/02/10 07:14:19;;;;;;;77.70;46.40;;;;;;;-128.00;-1.00;-1.00;103226;1253;1004225;-79
2024/02/10 07:16:46;;;;;;;80.10;51.20;;;;;;;-128.00;-1.00;-1.00;103188;1254;1058170;-75
2024/02/10 07:19:13;;;;;;;77.40;50.10;;;;;;;-128.00;-1.00;-1.00;103219;1253;1004190;-75
2024/02/10 07:21:39;;;;;;;70.70;45.00;;;;;;;-128.00;-1.00;-1.00;103287;1254;1004248;-75
2024/02/10 07:24:07;;;;;;;76.40;50.60;;;;;;;-128.00;-1.00;-1.00;103283;1252;1005553;-80
2024/02/10 07:26:34;;;;;;;97.00;54.40;;;;;;;-128.00;-1.00;-1.00;103859;1254;1062070;-80
2024/02/10 07:29:01;;;;;;;77.20;46.90;;;;;;;-128.00;-1.00;-1.00;103880;1254;1005077;-80
2024/02/10 07:31:27;;;;;;;82.10;50.40;;;;;;;-128.00;-1.00;-1.00;105674;1253;1003313;-79
2024/02/10 07:33:58;;;;;;;81.60;51.60;;;;;;;-128.00;-1.00;-1.00;105634;1254;1003553;-79
2024/02/10 07:36:34;;;;;;;77.80;49.20;;;;;;;-128.00;-1.00;-1.00;105658;1254;1046097;-80
2024/02/10 07:39:06;;;;;;;83.90;50.20;;;;;;;-128.00;-1.00;-1.00;105675;1253;1062061;-80
2024/02/10 07:41:38;;;;;;;71.10;46.50;;;;;;;-128.00;-1.00;-1.00;105644;1254;1057866;-80
2024/02/10 07:44:08;;;;;;;75.00;44.80;;;;;;;-128.00;-1.00;-1.00;105647;1254;1060861;-79
2024/02/10 07:46:34;;;;;;;81.00;49.40;;;;;;;-128.00;-1.00;-1.00;105695;1254;1045761;-80
2024/02/10 07:49:07;;;;;;;69.90;45.50;;;;;;;-128.00;-1.00;-1.00;105674;1253;1003781;-80
2024/02/10 07:51:33;;;;;;;73.30;46.20;;;;;;;-128.00;-1.00;-1.00;105553;1253;1061331;-79
2024/02/10 07:54:00;;;;;;;79.80;48.90;;;;;;;-128.00;-1.00;-1.00;105654;1253;1004718;-79
2024/02/10 07:56:29;;;;;;;72.40;46.30;;;;;;;-128.00;-1.00;-1.00;105656;1252;1004055;-80
2024/02/10 07:58:59;;;;;;;76.80;47.20;;;;;;;-128.00;-1.00;-1.00;105625;1252;1046199;-75
2024/02/10 08:01:26;;;;;;;89.40;52.40;;;;;;;-128.00;-1.00;-1.00;105642;1254;1047257;-80
2024/02/10 08:03:54;;;;;;;109.80;57.70;;;;;;;-128.00;-1.00;-1.00;105658;1253;1003388;-75
2024/02/10 08:06:26;;;;;;;96.10;52.30;;;;;;;-128.00;-1.00;-1.00;103770;1254;1004657;-75
2024/02/10 08:09:01;;;;;;;81.70;49.50;;;;;;;-128.00;-1.00;-1.00;104100;1253;1060194;-80
2024/02/10 08:11:27;;;;;;;68.70;43.10;;;;;;;-128.00;-1.00;-1.00;105647;1253;1045229;-76
2024/02/10 08:13:54;;;;;;;75.40;44.50;;;;;;;-128.00;-1.00;-1.00;105612;1253;1004455;-80
2024/02/10 08:16:27;;;;;;;173.10;84.10;;;;;;;-128.00;-1.00;-1.00;105503;1254;1004612;-80
2024/02/10 08:18:54;;;;;;;189.10;93.20;;;;;;;-128.00;-1.00;-1.00;105535;1252;1058096;-80
2024/02/10 08:21:22;;;;;;;197.80;107.20;;;;;;;-128.00;-1.00;-1.00;104598;1254;1003954;-80
2024/02/10 08:23:52;;;;;;;172.90;97.70;;;;;;;-128.00;-1.00;-1.00;103227;1254;1005245;-80
2024/02/10 08:26:19;;;;;;;152.20;98.40;;;;;;;-128.00;-1.00;-1.00;103408;1254;1048378;-76
2024/02/10 08:28:50;;;;;;;178.20;116.30;;;;;;;-128.00;-1.00;-1.00;103389;1254;1003768;-75
2024/02/10 08:31:20;;;;;;;139.40;91.80;;;;;;;-128.00;-1.00;-1.00;103360;1252;1058240;-79
2024/02/10 08:33:50;;;;;;;137.30;91.40;;;;;;;-128.00;-1.00;-1.00;103259;1253;1060632;-75
2024/02/10 08:36:17;;;;;;;115.20;80.70;;;;;;;-128.00;-1.00;-1.00;103316;1256;1045512;-76
2024/02/10 08:38:43;;;;;;;120.20;84.80;;;;;;;-128.00;-1.00;-1.00;103328;1254;1004809;-75
2024/02/10 08:41:10;;;;;;;137.70;90.50;;;;;;;-128.00;-1.00;-1.00;103214;1254;1004294;-76
2024/02/10 08:43:40;;;;;;;132.60;83.90;;;;;;;-128.00;-1.00;-1.00;103259;1254;1004553;-80
2024/02/10 08:46:07;;;;;;;129.20;77.20;;;;;;;-128.00;-1.00;-1.00;103324;1254;1059310;-75
2024/02/10 08:48:33;;;;;;;119.20;80.20;;;;;;;-128.00;-1.00;-1.00;103211;1253;1004807;-75
2024/02/10 08:51:00;;;;;;;97.70;66.90;;;;;;;-128.00;-1.00;-1.00;103260;1254;1004017;-76
2024/02/10 08:53:29;;;;;;;83.10;60.70;;;;;;;-128.00;-1.00;-1.00;103336;1253;1004707;-75
2024/02/10 08:55:55;;;;;;;84.50;54.20;;;;;;;-128.00;-1.00;-1.00;103300;1253;1058718;-75
2024/02/10 08:58:22;;;;;;;72.60;49.10;;;;;;;-128.00;-1.00;-1.00;103320;1256;1005700;-80
2024/02/10 09:00:49;;;;;;;68.60;44.90;;;;;;;-128.00;-1.00;-1.00;103286;1253;1004508;-75
2024/02/10 09:03:15;;;;;;;85.10;54.00;;;;;;;-128.00;-1.00;-1.00;103310;1253;1004409;-75
2024/02/10 09:05:41;;;;;;;69.60;45.50;;;;;;;-128.00;-1.00;-1.00;103350;1253;1005156;-75
2024/02/10 09:08:08;;;;;;;56.80;36.00;;;;;;;-128.00;-1.00;-1.00;103327;1252;1003930;-76
2024/02/10 09:10:34;;;;;;;71.60;46.90;;;;;;;-128.00;-1.00;-1.00;103251;1253;1004051;-76
2024/02/10 09:13:03;;;;;;;67.20;46.50;;;;;;;-128.00;-1.00;-1.00;103425;1254;1005868;-76
2024/02/10 09:15:29;;;;;;;54.30;40.00;;;;;;;-128.00;-1.00;-1.00;103349;1252;1004467;-80
2024/02/10 09:17:56;;;;;;;56.00;36.30;;;;;;;-128.00;-1.00;-1.00;103341;1257;1004125;-75
2024/02/10 09:20:23;;;;;;;44.40;32.30;;;;;;;-128.00;-1.00;-1.00;103386;1254;1004080;-75
2024/02/10 09:22:50;;;;;;;36.40;25.20;;;;;;;-128.00;-1.00;-1.00;103413;1253;1004414;-81
2024/02/10 09:25:18;;;;;;;30.20;20.90;;;;;;;-128.00;-1.00;-1.00;103287;1256;1005055;-76
2024/02/10 09:27:46;;;;;;;32.70;22.90;;;;;;;-128.00;-1.00;-1.00;104955;1254;1004044;-80
2024/02/10 09:30:13;;;;;;;28.10;18.70;;;;;;;-128.00;-1.00;-1.00;105652;1252;1004131;-76
2024/02/10 09:32:39;;;;;;;32.00;22.00;;;;;;;-128.00;-1.00;-1.00;105701;1252;1004077;-76
2024/02/10 09:35:06;;;;;;;42.20;30.50;;;;;;;-128.00;-1.00;-1.00;105644;1252;1004391;-80
2024/02/10 09:37:33;;;;;;;48.40;35.30;;;;;;;-128.00;-1.00;-1.00;105658;1252;1004409;-75
2024/02/10 09:40:00;;;;;;;39.60;28.40;;;;;;;-128.00;-1.00;-1.00;105649;1253;1003361;-75
2024/02/10 09:42:26;;;;;;;46.10;32.70;;;;;;;-128.00;-1.00;-1.00;104601;1253;1004906;-80
2024/02/10 09:44:53;;;;;;;49.90;34.80;;;;;;;-128.00;-1.00;-1.00;103255;1253;1004810;-76
2024/02/10 09:47:19;;;;;;;50.10;38.20;;;;;;;-128.00;-1.00;-1.00;103234;1253;1004486;-76
2024/02/10 09:49:47;;;;;;;51.20;38.50;;;;;;;-128.00;-1.00;-1.00;103266;1254;1004920;-76
2024/02/10 09:52:14;;;;;;;68.30;47.20;;;;;;;-128.00;-1.00;-1.00;103266;1253;1004237;-76
2024/02/10 09:54:40;;;;;;;60.90;45.10;;;;;;;-128.00;-1.00;-1.00;103315;1252;1004923;-77
2024/02/10 09:57:11;;;;;;;63.10;46.20;;;;;;;-128.00;-1.00;-1.00;103343;1254;1003848;-80
2024/02/10 09:59:39;;;;;;;75.00;53.40;;;;;;;-128.00;-1.00;-1.00;103222;1253;1060152;-80
2024/02/10 10:02:08;;;;;;;59.30;41.20;;;;;;;-128.00;-1.00;-1.00;103289;1252;1005052;-75
2024/02/10 10:04:35;;;;;;;47.60;31.80;;;;;;;-128.00;-1.00;-1.00;103118;1253;1049792;-76
2024/02/10 10:07:06;;;;;;;33.60;26.10;;;;;;;-128.00;-1.00;-1.00;103383;1253;1004242;-80
2024/02/10 10:09:33;;;;;;;32.10;21.90;;;;;;;-128.00;-1.00;-1.00;103342;1253;1058619;-76
2024/02/10 10:11:59;;;;;;;29.60;20.00;;;;;;;-128.00;-1.00;-1.00;103331;1253;1005041;-80
2024/02/10 10:14:26;;;;;;;31.20;20.70;;;;;;;-128.00;-1.00;-1.00;103324;1253;1004354;-79
2024/02/10 10:16:59;;;;;;;46.30;31.90;;;;;;;-128.00;-1.00;-1.00;103239;1252;1004666;-76
2024/02/10 10:19:29;;;;;;;42.00;27.90;;;;;;;-128.00;-1.00;-1.00;103274;1253;1062015;-76
2024/02/10 10:21:56;;;;;;;33.30;21.20;;;;;;;-128.00;-1.00;-1.00;103288;1253;1060412;-80
2024/02/10 10:24:23;;;;;;;30.60;21.00;;;;;;;-128.00;-1.00;-1.00;103318;1256;1004732;-75
2024/02/10 10:26:51;;;;;;;18.70;14.30;;;;;;;-128.00;-1.00;-1.00;103186;1252;1004202;-76
2024/02/10 10:29:17;;;;;;;17.60;11.30;;;;;;;-128.00;-1.00;-1.00;103297;1253;1004867;-76
2024/02/10 10:31:44;;;;;;;30.80;22.90;;;;;;;-128.00;-1.00;-1.00;103151;1258;1003902;-76
2024/02/10 10:34:10;;;;;;;20.20;12.90;;;;;;;-128.00;-1.00;-1.00;103359;1253;1004501;-81
2024/02/10 10:36:37;;;;;;;18.80;14.90;;;;;;;-128.00;-1.00;-1.00;103233;1253;1004515;-76
2024/02/10 10:39:03;;;;;;;21.30;14.50;;;;;;;-128.00;-1.00;-1.00;103231;1253;1004606;-76
2024/02/10 10:41:31;;;;;;;18.80;13.80;;;;;;;-128.00;-1.00;-1.00;103206;1253;1004817;-80
2024/02/10 10:43:58;;;;;;;20.30;14.90;;;;;;;-128.00;-1.00;-1.00;103187;1257;1004670;-81
2024/02/10 10:46:24;;;;;;;26.40;15.60;;;;;;;-128.00;-1.00;-1.00;103214;1256;1003585;-80
2024/02/10 10:48:51;;;;;;;23.00;18.40;;;;;;;-128.00;-1.00;-1.00;103206;1251;1004092;-76
2024/02/10 10:51:17;;;;;;;16.20;9.20;;;;;;;-128.00;-1.00;-1.00;103307;1253;1003750;-76
2024/02/10 10:53:45;;;;;;;22.80;10.10;;;;;;;-128.00;-1.00;-1.00;103285;1253;1004343;-76
2024/02/10 10:56:14;;;;;;;13.70;8.30;;;;;;;-128.00;-1.00;-1.00;103389;1252;1004920;-76
2024/02/10 10:58:46;;;;;;;17.00;9.20;;;;;;;-128.00;-1.00;-1.00;103249;1253;1058317;-80
2024/02/10 11:01:15;;;;;;;13.50;6.20;;;;;;;-128.00;-1.00;-1.00;103309;1253;1059083;-80
2024/02/10 11:03:42;;;;;;;;;;;;;;;-128.00;-1.00;-1.00;104030;1252;1045676;-76